sensor_id;sensor_type;location;lat;lon;timestamp;pressure;altitude;pressure_sealevel;temperature;humidity
75998;BME280;64685;48.762;44.822;2023-05-23T00:04:01;101101.88;;;16.81;80.87
75998;BME280;64685;48.762;44.822;2023-05-23T00:09:04;101100.94;;;16.77;80.91
75998;BME280;64685;48.762;44.822;2023-05-23T00:14:06;101093.78;;;16.79;nan
75998;BME280;64685;48.762;44.822;2023-05-23T00:19:10;101085.31;;;16.79;80.89
75998;BME280;64685;48.762;44.822;2023-05-23T00:24:13;101103.53;;;16.82;81.25
75998;BME280;64685;48.762;44.822;2023-05-23T00:29:20;101093.19;;;16.86;81.26
75998;BME280;64685;48.762;44.822;2023-05-23T00:34:23;101095.28;;;16.89;81.45
75998;BME280;64685;48.762;44.822;2023-05-23T00:39:25;101086.91;;;16.92;80.99
75998;BME280;64685;48.762;44.822;2023-05-23T00:44:28;101076.91;;;16.95;80.95
75998;BME280;64685;48.762;44.822;2023-05-23T00:49:32;101080.22;;;16.97;81.04
75998;BME280;64685;48.762;44.822;2023-05-23T00:54:35;101083.25;;;17.04;81.06
75998;BME280;64685;48.762;44.822;2023-05-23T00:59:38;101074.78;;;17.04;80.86
75998;BME280;64685;48.762;44.822;2023-05-23T01:04:42;101073.34;;;17.10;80.83
75998;BME280;64685;48.762;44.822;2023-05-23T01:09:45;101059.34;;;17.13;80.77
75998;BME280;64685;48.762;44.822;2023-05-23T01:15:05;101050.28;;;17.20;80.63
75998;BME280;64685;48.762;44.822;2023-05-23T01:20:11;101056.25;;;17.18;80.49
75998;BME280;64685;48.762;44.822;2023-05-23T01:31:03;101043.97;;;17.26;80.11
75998;BME280;64685;48.762;44.822;2023-05-23T01:36:06;101040.81;;;17.28;79.86
75998;BME280;64685;48.762;44.822;2023-05-23T01:41:10;101039.63;;;17.29;79.78
75998;BME280;64685;48.762;44.822;2023-05-23T01:46:13;101042.19;;;17.34;79.64
75998;BME280;64685;48.762;44.822;2023-05-23T01:51:17;101034.56;;;17.34;79.43
75998;BME280;64685;48.762;44.822;2023-05-23T01:56:20;101037.94;;;17.40;79.54
75998;BME280;64685;48.762;44.822;2023-05-23T02:01:23;101044.53;;;17.44;79.25
75998;BME280;64685;48.762;44.822;2023-05-23T02:06:25;101040.44;;;17.41;79.03
75998;BME280;64685;48.762;44.822;2023-05-23T02:11:28;101041.09;;;17.50;78.86
75998;BME280;64685;48.762;44.822;2023-05-23T02:16:31;101041.44;;;17.49;78.67
75998;BME280;64685;48.762;44.822;2023-05-23T02:21:34;101037.53;;;17.53;78.52
75998;BME280;64685;48.762;44.822;2023-05-23T02:26:37;101030.75;;;17.70;78.25
75998;BME280;64685;48.762;44.822;2023-05-23T02:31:40;101022.34;;;17.89;77.73
75998;BME280;64685;48.762;44.822;2023-05-23T02:36:43;101050.81;;;18.77;76.30
75998;BME280;64685;48.762;44.822;2023-05-23T02:41:46;101049.31;;;19.78;73.44
75998;BME280;64685;48.762;44.822;2023-05-23T02:46:49;101031.63;;;20.55;69.80
75998;BME280;64685;48.762;44.822;2023-05-23T02:51:52;101024.47;;;20.91;67.39
75998;BME280;64685;48.762;44.822;2023-05-23T02:56:55;101016.09;;;20.75;67.53
75998;BME280;64685;48.762;44.822;2023-05-23T03:01:58;101009.50;;;21.27;65.49
75998;BME280;64685;48.762;44.822;2023-05-23T03:07:01;101005.91;;;21.66;63.95
75998;BME280;64685;48.762;44.822;2023-05-23T03:12:08;100998.00;;;22.33;62.06
75998;BME280;64685;48.762;44.822;2023-05-23T03:17:12;100989.69;;;22.61;60.44
75998;BME280;64685;48.762;44.822;2023-05-23T03:22:15;100994.19;;;22.65;59.96
75998;BME280;64685;48.762;44.822;2023-05-23T03:27:18;100995.19;;;23.04;58.81
75998;BME280;64685;48.762;44.822;2023-05-23T03:32:20;100988.25;;;23.02;57.47
75998;BME280;64685;48.762;44.822;2023-05-23T03:37:23;100968.16;;;22.70;57.75
75998;BME280;64685;48.762;44.822;2023-05-23T03:42:27;100956.94;;;23.05;57.09
75998;BME280;64685;48.762;44.822;2023-05-23T03:47:30;100941.50;;;23.10;56.77
75998;BME280;64685;48.762;44.822;2023-05-23T03:52:33;100950.31;;;22.73;56.20
75998;BME280;64685;48.762;44.822;2023-05-23T03:57:36;100946.28;;;22.85;56.13
75998;BME280;64685;48.762;44.822;2023-05-23T04:02:40;100948.03;;;23.17;55.68
75998;BME280;64685;48.762;44.822;2023-05-23T04:07:43;100937.53;;;23.46;54.50
75998;BME280;64685;48.762;44.822;2023-05-23T04:12:45;100935.97;;;23.73;53.58
75998;BME280;64685;48.762;44.822;2023-05-23T04:17:51;100928.22;;;23.80;53.16
75998;BME280;64685;48.762;44.822;2023-05-23T04:22:54;100940.78;;;24.56;52.41
75998;BME280;64685;48.762;44.822;2023-05-23T04:28:00;100928.50;;;22.41;54.81
75998;BME280;64685;48.762;44.822;2023-05-23T04:33:03;100943.22;;;21.52;57.83
75998;BME280;64685;48.762;44.822;2023-05-23T04:38:05;100944.06;;;21.56;57.93
75998;BME280;64685;48.762;44.822;2023-05-23T04:43:08;100930.75;;;21.64;57.94
75998;BME280;64685;48.762;44.822;2023-05-23T04:48:22;100922.25;;;22.14;57.72
75998;BME280;64685;48.762;44.822;2023-05-23T04:53:25;100929.72;;;22.36;55.70
75998;BME280;64685;48.762;44.822;2023-05-23T04:58:30;100929.84;;;21.96;57.40
75998;BME280;64685;48.762;44.822;2023-05-23T05:03:37;100939.63;;;22.02;57.62
75998;BME280;64685;48.762;44.822;2023-05-23T05:08:40;100942.34;;;21.48;58.52
75998;BME280;64685;48.762;44.822;2023-05-23T05:13:44;100934.25;;;21.10;59.52
75998;BME280;64685;48.762;44.822;2023-05-23T05:18:48;100926.78;;;20.69;60.77
75998;BME280;64685;48.762;44.822;2023-05-23T05:23:50;100937.72;;;20.67;61.49
75998;BME280;64685;48.762;44.822;2023-05-23T05:28:55;100942.44;;;20.56;62.07
75998;BME280;64685;48.762;44.822;2023-05-23T05:33:58;100922.81;;;20.44;61.95
75998;BME280;64685;48.762;44.822;2023-05-23T05:39:02;100925.22;;;20.42;62.02
75998;BME280;64685;48.762;44.822;2023-05-23T05:44:05;100924.22;;;20.28;62.67
75998;BME280;64685;48.762;44.822;2023-05-23T05:49:08;100938.41;;;20.05;63.54
75998;BME280;64685;48.762;44.822;2023-05-23T05:54:13;100949.38;;;19.58;65.89
75998;BME280;64685;48.762;44.822;2023-05-23T05:59:19;100971.94;;;19.32;68.28
75998;BME280;64685;48.762;44.822;2023-05-23T06:04:22;100957.03;;;18.97;70.75
75998;BME280;64685;48.762;44.822;2023-05-23T06:09:25;100953.75;;;18.95;71.72
75998;BME280;64685;48.762;44.822;2023-05-23T06:14:28;100951.31;;;18.94;72.18
75998;BME280;64685;48.762;44.822;2023-05-23T06:19:31;100967.41;;;18.71;73.20
75998;BME280;64685;48.762;44.822;2023-05-23T06:24:33;100964.22;;;18.38;74.45
75998;BME280;64685;48.762;44.822;2023-05-23T06:29:37;100961.56;;;17.79;76.49
75998;BME280;64685;48.762;44.822;2023-05-23T06:34:40;100948.97;;;17.77;78.01
75998;BME280;64685;48.762;44.822;2023-05-23T06:39:42;100948.84;;;18.04;78.99
75998;BME280;64685;48.762;44.822;2023-05-23T06:44:45;100930.25;;;18.03;79.35
75998;BME280;64685;48.762;44.822;2023-05-23T06:49:47;100932.03;;;18.27;79.58
75998;BME280;64685;48.762;44.822;2023-05-23T06:54:50;100919.28;;;18.17;80.10
75998;BME280;64685;48.762;44.822;2023-05-23T06:59:53;100916.53;;;18.55;80.14
75998;BME280;64685;48.762;44.822;2023-05-23T07:04:56;100912.31;;;18.65;80.17
75998;BME280;64685;48.762;44.822;2023-05-23T07:10:20;100923.63;;;18.65;80.25
75998;BME280;64685;48.762;44.822;2023-05-23T07:15:24;100916.31;;;18.83;79.88
75998;BME280;64685;48.762;44.822;2023-05-23T07:20:36;100918.53;;;18.93;79.72
75998;BME280;64685;48.762;44.822;2023-05-23T07:25:51;100923.75;;;19.10;79.16
75998;BME280;64685;48.762;44.822;2023-05-23T07:31:13;100915.81;;;19.19;78.38
75998;BME280;64685;48.762;44.822;2023-05-23T07:36:18;100911.81;;;19.65;77.52
75998;BME280;64685;48.762;44.822;2023-05-23T07:41:21;100923.19;;;19.68;75.95
75998;BME280;64685;48.762;44.822;2023-05-23T07:46:24;100930.66;;;19.76;75.03
75998;BME280;64685;48.762;44.822;2023-05-23T07:51:27;100914.63;;;19.87;74.09
75998;BME280;64685;48.762;44.822;2023-05-23T07:56:30;100923.06;;;20.06;73.01
75998;BME280;64685;48.762;44.822;2023-05-23T08:01:33;100916.31;;;19.92;72.91
75998;BME280;64685;48.762;44.822;2023-05-23T08:06:38;100921.25;;;19.95;72.79
75998;BME280;64685;48.762;44.822;2023-05-23T08:11:54;100930.06;;;19.90;72.79
75998;BME280;64685;48.762;44.822;2023-05-23T08:16:58;100929.47;;;20.03;73.03
75998;BME280;64685;48.762;44.822;2023-05-23T08:22:01;100924.88;;;20.18;72.65
75998;BME280;64685;48.762;44.822;2023-05-23T08:27:06;100924.59;;;20.04;72.67
75998;BME280;64685;48.762;44.822;2023-05-23T08:32:10;100929.84;;;20.02;72.81
75998;BME280;64685;48.762;44.822;2023-05-23T08:37:13;100930.16;;;19.97;72.96
75998;BME280;64685;48.762;44.822;2023-05-23T08:42:16;100930.22;;;20.00;73.26
75998;BME280;64685;48.762;44.822;2023-05-23T08:47:19;100933.84;;;19.97;73.55
75998;BME280;64685;48.762;44.822;2023-05-23T08:52:32;100926.50;;;19.96;73.83
75998;BME280;64685;48.762;44.822;2023-05-23T08:57:35;100931.84;;;20.01;74.20
75998;BME280;64685;48.762;44.822;2023-05-23T09:02:56;100924.13;;;19.98;74.38
75998;BME280;64685;48.762;44.822;2023-05-23T09:08:23;100926.91;;;20.21;74.62
75998;BME280;64685;48.762;44.822;2023-05-23T09:13:32;100930.94;;;20.46;74.51
75998;BME280;64685;48.762;44.822;2023-05-23T09:18:39;100923.69;;;21.11;73.89
75998;BME280;64685;48.762;44.822;2023-05-23T09:23:44;100923.00;;;21.21;72.99
75998;BME280;64685;48.762;44.822;2023-05-23T09:28:48;100928.09;;;21.05;72.46
75998;BME280;64685;48.762;44.822;2023-05-23T09:33:51;100926.56;;;20.81;72.39
75998;BME280;64685;48.762;44.822;2023-05-23T09:38:54;100918.69;;;20.68;72.59
75998;BME280;64685;48.762;44.822;2023-05-23T09:43:57;100930.13;;;20.45;72.95
75998;BME280;64685;48.762;44.822;2023-05-23T09:49:01;100927.78;;;20.51;73.51
75998;BME280;64685;48.762;44.822;2023-05-23T09:54:04;100936.28;;;20.51;73.41
75998;BME280;64685;48.762;44.822;2023-05-23T09:59:10;100942.59;;;20.37;74.23
75998;BME280;64685;48.762;44.822;2023-05-23T10:04:18;100943.56;;;20.22;75.23
75998;BME280;64685;48.762;44.822;2023-05-23T10:09:24;100935.69;;;20.38;75.68
75998;BME280;64685;48.762;44.822;2023-05-23T10:14:28;100931.59;;;20.62;75.72
75998;BME280;64685;48.762;44.822;2023-05-23T10:19:59;100939.66;;;21.22;75.47
75998;BME280;64685;48.762;44.822;2023-05-23T10:25:09;100929.69;;;21.42;74.97
75998;BME280;64685;48.762;44.822;2023-05-23T10:30:12;100939.97;;;21.50;74.61
75998;BME280;64685;48.762;44.822;2023-05-23T10:41:11;100933.13;;;22.63;71.72
75998;BME280;64685;48.762;44.822;2023-05-23T10:46:15;100935.38;;;23.11;69.83
75998;BME280;64685;48.762;44.822;2023-05-23T10:51:38;100940.88;;;23.79;66.53
75998;BME280;64685;48.762;44.822;2023-05-23T10:56:41;100944.16;;;24.02;64.74
75998;BME280;64685;48.762;44.822;2023-05-23T11:01:43;100942.91;;;24.17;63.98
75998;BME280;64685;48.762;44.822;2023-05-23T11:06:46;100938.34;;;24.65;61.84
75998;BME280;64685;48.762;44.822;2023-05-23T11:16:56;100935.59;;;24.06;62.23
75998;BME280;64685;48.762;44.822;2023-05-23T11:22:03;100943.28;;;23.84;62.16
75998;BME280;64685;48.762;44.822;2023-05-23T11:27:11;100932.28;;;23.51;62.83
75998;BME280;64685;48.762;44.822;2023-05-23T11:32:13;100934.34;;;23.72;62.03
75998;BME280;64685;48.762;44.822;2023-05-23T11:37:19;100934.34;;;23.89;61.61
75998;BME280;64685;48.762;44.822;2023-05-23T11:42:28;100937.59;;;24.16;60.70
75998;BME280;64685;48.762;44.822;2023-05-23T11:47:30;100940.06;;;23.89;60.21
75998;BME280;64685;48.762;44.822;2023-05-23T11:52:33;100949.44;;;24.14;60.39
75998;BME280;64685;48.762;44.822;2023-05-23T11:57:39;100956.75;;;24.29;59.75
75998;BME280;64685;48.762;44.822;2023-05-23T12:02:43;100955.50;;;24.44;59.20
75998;BME280;64685;48.762;44.822;2023-05-23T12:07:47;100949.41;;;24.46;58.26
75998;BME280;64685;48.762;44.822;2023-05-23T12:12:51;100948.13;;;24.54;57.97
75998;BME280;64685;48.762;44.822;2023-05-23T12:17:54;100961.63;;;24.53;57.69
75998;BME280;64685;48.762;44.822;2023-05-23T12:22:57;100963.56;;;24.95;57.02
75998;BME280;64685;48.762;44.822;2023-05-23T12:27:59;100958.63;;;25.02;56.97
75998;BME280;64685;48.762;44.822;2023-05-23T12:33:07;100958.38;;;24.62;57.63
75998;BME280;64685;48.762;44.822;2023-05-23T12:38:14;100963.66;;;24.60;57.76
75998;BME280;64685;48.762;44.822;2023-05-23T12:43:17;100971.03;;;24.33;58.26
75998;BME280;64685;48.762;44.822;2023-05-23T12:48:20;100980.84;;;23.90;60.02
75998;BME280;64685;48.762;44.822;2023-05-23T12:53:24;100984.44;;;23.76;60.45
75998;BME280;64685;48.762;44.822;2023-05-23T12:58:27;100989.31;;;23.51;59.87
75998;BME280;64685;48.762;44.822;2023-05-23T13:03:32;100987.63;;;23.40;60.01
75998;BME280;64685;48.762;44.822;2023-05-23T13:08:35;100987.19;;;23.27;59.48
75998;BME280;64685;48.762;44.822;2023-05-23T13:13:37;100981.47;;;23.27;59.79
75998;BME280;64685;48.762;44.822;2023-05-23T13:18:40;100977.44;;;23.32;59.98
75998;BME280;64685;48.762;44.822;2023-05-23T13:23:43;100981.09;;;23.36;59.98
75998;BME280;64685;48.762;44.822;2023-05-23T13:28:46;100977.44;;;23.35;59.78
75998;BME280;64685;48.762;44.822;2023-05-23T13:33:48;100984.41;;;23.59;59.84
75998;BME280;64685;48.762;44.822;2023-05-23T13:38:51;100986.41;;;23.48;59.83
75998;BME280;64685;48.762;44.822;2023-05-23T13:43:54;100991.69;;;23.35;59.90
75998;BME280;64685;48.762;44.822;2023-05-23T13:48:57;100983.16;;;23.42;59.92
75998;BME280;64685;48.762;44.822;2023-05-23T13:54:00;100985.19;;;23.42;60.20
75998;BME280;64685;48.762;44.822;2023-05-23T13:59:02;100985.63;;;23.54;60.18
75998;BME280;64685;48.762;44.822;2023-05-23T14:04:05;100995.41;;;23.50;60.30
75998;BME280;64685;48.762;44.822;2023-05-23T14:09:08;100999.50;;;23.52;60.35
75998;BME280;64685;48.762;44.822;2023-05-23T14:14:10;101005.19;;;23.59;60.11
75998;BME280;64685;48.762;44.822;2023-05-23T14:19:13;100990.94;;;23.63;60.08
75998;BME280;64685;48.762;44.822;2023-05-23T14:24:16;100999.50;;;23.70;60.30
75998;BME280;64685;48.762;44.822;2023-05-23T14:29:19;100997.50;;;23.81;59.77
75998;BME280;64685;48.762;44.822;2023-05-23T14:34:21;100998.72;;;23.80;59.96
75998;BME280;64685;48.762;44.822;2023-05-23T14:39:24;100994.25;;;23.75;59.99
75998;BME280;64685;48.762;44.822;2023-05-23T14:44:27;100986.47;;;23.76;60.32
75998;BME280;64685;48.762;44.822;2023-05-23T14:49:29;100990.94;;;23.70;60.06
75998;BME280;64685;48.762;44.822;2023-05-23T14:54:32;101011.75;;;23.60;60.57
75998;BME280;64685;48.762;44.822;2023-05-23T14:59:35;101003.53;;;23.44;60.40
75998;BME280;64685;48.762;44.822;2023-05-23T15:04:38;101001.81;;;23.19;60.82
75998;BME280;64685;48.762;44.822;2023-05-23T15:09:41;101010.28;;;23.05;61.36
75998;BME280;64685;48.762;44.822;2023-05-23T15:14:43;101006.53;;;22.90;61.58
75998;BME280;64685;48.762;44.822;2023-05-23T15:19:46;101004.88;;;22.86;62.07
75998;BME280;64685;48.762;44.822;2023-05-23T15:24:49;101020.31;;;22.78;62.42
75998;BME280;64685;48.762;44.822;2023-05-23T15:29:51;101014.16;;;22.72;62.24
75998;BME280;64685;48.762;44.822;2023-05-23T15:34:54;101023.03;;;22.64;62.25
75998;BME280;64685;48.762;44.822;2023-05-23T15:39:57;101014.47;;;22.57;62.57
75998;BME280;64685;48.762;44.822;2023-05-23T15:45:00;101018.53;;;22.56;62.64
75998;BME280;64685;48.762;44.822;2023-05-23T15:50:06;101018.03;;;22.43;62.77
75998;BME280;64685;48.762;44.822;2023-05-23T15:55:08;101016.28;;;22.32;63.20
75998;BME280;64685;48.762;44.822;2023-05-23T16:00:13;101017.03;;;22.22;63.40
75998;BME280;64685;48.762;44.822;2023-05-23T16:05:16;101018.56;;;22.12;63.56
75998;BME280;64685;48.762;44.822;2023-05-23T16:10:18;101018.88;;;22.00;63.91
75998;BME280;64685;48.762;44.822;2023-05-23T16:15:21;101013.88;;;21.87;64.38
75998;BME280;64685;48.762;44.822;2023-05-23T16:20:24;101018.63;;;21.76;64.62
75998;BME280;64685;48.762;44.822;2023-05-23T16:25:27;101029.47;;;21.67;64.81
75998;BME280;64685;48.762;44.822;2023-05-23T16:30:30;101030.13;;;21.53;65.30
75998;BME280;64685;48.762;44.822;2023-05-23T16:35:32;101030.03;;;21.46;65.72
75998;BME280;64685;48.762;44.822;2023-05-23T16:40:35;101035.22;;;21.37;65.95
75998;BME280;64685;48.762;44.822;2023-05-23T16:45:38;101040.00;;;21.30;66.31
75998;BME280;64685;48.762;44.822;2023-05-23T16:50:43;101048.00;;;21.21;66.44
75998;BME280;64685;48.762;44.822;2023-05-23T16:55:46;101046.63;;;21.08;66.76
75998;BME280;64685;48.762;44.822;2023-05-23T17:00:48;101052.94;;;20.94;67.04
75998;BME280;64685;48.762;44.822;2023-05-23T17:05:51;101056.94;;;20.90;67.40
75998;BME280;64685;48.762;44.822;2023-05-23T17:10:54;101067.81;;;20.88;67.68
75998;BME280;64685;48.762;44.822;2023-05-23T17:15:57;101087.19;;;20.82;67.99
75998;BME280;64685;48.762;44.822;2023-05-23T17:20:59;101090.91;;;20.86;68.00
75998;BME280;64685;48.762;44.822;2023-05-23T17:26:02;101094.22;;;20.88;68.04
75998;BME280;64685;48.762;44.822;2023-05-23T17:31:05;101100.69;;;20.89;68.07
75998;BME280;64685;48.762;44.822;2023-05-23T17:36:09;101117.41;;;20.94;68.10
75998;BME280;64685;48.762;44.822;2023-05-23T17:41:12;101112.56;;;20.94;68.00
75998;BME280;64685;48.762;44.822;2023-05-23T17:46:15;101114.00;;;20.85;67.89
75998;BME280;64685;48.762;44.822;2023-05-23T17:51:18;101123.66;;;20.80;68.18
75998;BME280;64685;48.762;44.822;2023-05-23T17:56:22;101125.50;;;20.69;68.32
75998;BME280;64685;48.762;44.822;2023-05-23T18:01:26;101134.22;;;20.57;68.71
75998;BME280;64685;48.762;44.822;2023-05-23T18:06:29;101130.44;;;20.50;68.98
75998;BME280;64685;48.762;44.822;2023-05-23T18:11:31;101135.97;;;20.39;69.18
75998;BME280;64685;48.762;44.822;2023-05-23T18:16:34;101148.34;;;20.28;69.19
75998;BME280;64685;48.762;44.822;2023-05-23T18:21:38;101146.13;;;20.18;69.57
75998;BME280;64685;48.762;44.822;2023-05-23T18:26:41;101145.09;;;20.07;70.22
75998;BME280;64685;48.762;44.822;2023-05-23T18:31:45;101157.16;;;20.04;70.01
75998;BME280;64685;48.762;44.822;2023-05-23T18:36:48;101155.44;;;19.99;70.37
75998;BME280;64685;48.762;44.822;2023-05-23T18:41:50;101149.25;;;19.94;70.36
75998;BME280;64685;48.762;44.822;2023-05-23T18:46:53;101153.16;;;19.86;70.55
75998;BME280;64685;48.762;44.822;2023-05-23T18:51:56;101158.69;;;19.79;70.90
75998;BME280;64685;48.762;44.822;2023-05-23T18:56:59;101143.97;;;19.73;70.85
75998;BME280;64685;48.762;44.822;2023-05-23T19:02:02;101154.81;;;19.68;71.05
75998;BME280;64685;48.762;44.822;2023-05-23T19:07:05;101163.59;;;19.63;71.35
75998;BME280;64685;48.762;44.822;2023-05-23T19:12:08;101160.41;;;19.64;71.17
75998;BME280;64685;48.762;44.822;2023-05-23T19:17:11;101160.63;;;19.56;71.57
75998;BME280;64685;48.762;44.822;2023-05-23T19:22:14;101165.31;;;19.48;71.73
75998;BME280;64685;48.762;44.822;2023-05-23T19:27:17;101163.59;;;19.44;72.00
75998;BME280;64685;48.762;44.822;2023-05-23T19:32:20;101161.88;;;19.39;72.20
75998;BME280;64685;48.762;44.822;2023-05-23T19:37:23;101164.19;;;19.34;72.45
75998;BME280;64685;48.762;44.822;2023-05-23T19:42:26;101164.47;;;19.29;72.62
75998;BME280;64685;48.762;44.822;2023-05-23T19:47:28;101163.13;;;19.23;72.76
75998;BME280;64685;48.762;44.822;2023-05-23T19:52:32;101159.63;;;19.14;72.75
75998;BME280;64685;48.762;44.822;2023-05-23T19:57:34;101156.22;;;19.05;72.94
75998;BME280;64685;48.762;44.822;2023-05-23T20:02:37;101169.81;;;18.99;73.19
75998;BME280;64685;48.762;44.822;2023-05-23T20:07:40;101171.28;;;18.93;73.25
75998;BME280;64685;48.762;44.822;2023-05-23T20:12:43;101172.41;;;18.89;73.23
75998;BME280;64685;48.762;44.822;2023-05-23T20:17:45;101163.81;;;18.85;73.20
75998;BME280;64685;48.762;44.822;2023-05-23T20:22:48;101164.47;;;18.79;73.45
75998;BME280;64685;48.762;44.822;2023-05-23T20:27:50;101181.38;;;18.75;73.81
75998;BME280;64685;48.762;44.822;2023-05-23T20:32:53;101173.22;;;18.74;73.54
75998;BME280;64685;48.762;44.822;2023-05-23T20:37:56;101166.78;;;18.73;73.74
75998;BME280;64685;48.762;44.822;2023-05-23T20:42:59;101166.28;;;18.71;73.93
75998;BME280;64685;48.762;44.822;2023-05-23T20:48:05;101158.16;;;18.70;74.08
75998;BME280;64685;48.762;44.822;2023-05-23T20:53:08;101174.78;;;18.71;74.04
75998;BME280;64685;48.762;44.822;2023-05-23T20:58:11;101179.63;;;18.71;74.01
75998;BME280;64685;48.762;44.822;2023-05-23T21:03:14;101170.31;;;18.70;74.15
75998;BME280;64685;48.762;44.822;2023-05-23T21:08:16;101178.28;;;18.65;74.17
75998;BME280;64685;48.762;44.822;2023-05-23T21:13:19;101185.19;;;18.52;74.34
75998;BME280;64685;48.762;44.822;2023-05-23T21:18:21;101196.16;;;18.38;75.03
75998;BME280;64685;48.762;44.822;2023-05-23T21:23:24;101195.94;;;18.31;75.25
75998;BME280;64685;48.762;44.822;2023-05-23T21:28:27;101201.03;;;18.25;75.52
75998;BME280;64685;48.762;44.822;2023-05-23T21:33:30;101212.41;;;18.13;75.72
75998;BME280;64685;48.762;44.822;2023-05-23T21:38:33;101212.38;;;17.98;75.91
75998;BME280;64685;48.762;44.822;2023-05-23T21:43:38;101207.34;;;17.91;76.22
75998;BME280;64685;48.762;44.822;2023-05-23T21:48:41;101210.94;;;18.04;76.60
75998;BME280;64685;48.762;44.822;2023-05-23T21:53:43;101209.22;;;17.60;76.84
75998;BME280;64685;48.762;44.822;2023-05-23T21:58:46;101216.31;;;17.54;77.01
75998;BME280;64685;48.762;44.822;2023-05-23T22:03:48;101219.94;;;17.54;77.17
75998;BME280;64685;48.762;44.822;2023-05-23T22:08:51;101216.16;;;17.62;77.25
75998;BME280;64685;48.762;44.822;2023-05-23T22:13:54;101224.16;;;17.60;77.18
75998;BME280;64685;48.762;44.822;2023-05-23T22:18:57;101216.06;;;17.59;77.31
75998;BME280;64685;48.762;44.822;2023-05-23T22:24:00;101236.19;;;17.57;77.56
75998;BME280;64685;48.762;44.822;2023-05-23T22:29:03;101247.63;;;17.49;77.55
75998;BME280;64685;48.762;44.822;2023-05-23T22:34:06;101245.50;;;17.58;77.73
75998;BME280;64685;48.762;44.822;2023-05-23T22:39:09;101248.47;;;17.49;77.86
75998;BME280;64685;48.762;44.822;2023-05-23T22:44:12;101260.44;;;17.46;77.82
75998;BME280;64685;48.762;44.822;2023-05-23T22:49:14;101270.22;;;17.37;78.06
75998;BME280;64685;48.762;44.822;2023-05-23T22:54:17;101283.28;;;17.29;78.29
75998;BME280;64685;48.762;44.822;2023-05-23T22:59:20;101267.41;;;17.13;78.44
75998;BME280;64685;48.762;44.822;2023-05-23T23:04:22;101277.66;;;16.93;78.83
75998;BME280;64685;48.762;44.822;2023-05-23T23:09:26;101284.91;;;16.38;78.98
75998;BME280;64685;48.762;44.822;2023-05-23T23:14:29;101278.34;;;16.13;79.70
75998;BME280;64685;48.762;44.822;2023-05-23T23:19:32;101283.97;;;16.13;80.16
75998;BME280;64685;48.762;44.822;2023-05-23T23:24:36;101286.22;;;16.08;79.86
75998;BME280;64685;48.762;44.822;2023-05-23T23:29:38;101283.41;;;16.08;80.11
75998;BME280;64685;48.762;44.822;2023-05-23T23:34:41;101295.63;;;16.12;80.04
75998;BME280;64685;48.762;44.822;2023-05-23T23:39:43;101286.47;;;16.15;79.87
75998;BME280;64685;48.762;44.822;2023-05-23T23:44:46;101281.28;;;16.17;79.85
75998;BME280;64685;48.762;44.822;2023-05-23T23:49:49;101274.22;;;16.11;79.75
75998;BME280;64685;48.762;44.822;2023-05-23T23:54:52;101279.66;;;16.16;79.66
75998;BME280;64685;48.762;44.822;2023-05-23T23:59:55;101269.47;;;16.23;79.48
